Terminal Aerodrome Forecast
Issued by NWS Louisville, KY

Home | Current Version | Previous Version | Text Only | Print | Product List | Glossary On
Versions: 1 2 3 4 5 6 7 8 9 10 11 12 13
000
FTUS43 KLMK 300500
TAFLEX
TAF
KLEX 300522Z 3006/3106 16005KT P6SM FEW100
     FM301600 21010KT P6SM SCT050 BKN100
     FM302200 21009KT 6SM -SHRA VCTS BKN035CB
     FM310400 18007KT P6SM VCSH SCT020 BKN035=

USA.gov is the U.S. government's official web portal to all federal, state and local government web resources and services.